AirNav   Duncan Aviation - Near you to keep you flying
 
 600 users online  

AZ61 G M Ranch Airport
Stanfield, Arizona, USA

GOING TO STANFIELD?


FAA INFORMATION EFFECTIVE 11 AUGUST 2022

Location

FAA Identifier: AZ61
Lat/Long: 32-54-06.1780N 112-14-16.5210W
32-54.102967N 112-14.275350W
32.9017161,-112.2379225
(estimated)
Elevation: 1616 ft. / 493 m (estimated)
Variation: 13E (1985)
From city: 9 miles E of STANFIELD, AZ
Time zone: UTC -7 (year round; does not observe DST)
Zip code: 85239

Airport Operations

Airport use: Private use. Permission required prior to landing
Activation date: 12/1982
Control tower: no
ARTCC: ALBUQUERQUE CENTER
FSS: PRESCOTT FLIGHT SERVICE STATION
Attendance: CONTINUOUS
Wind indicator: yes
Segmented circle: no

Airport Communications

WX AWOS-3 at A39 (17 nm E): 126.900 (520-568-7704)

Nearby radio navigation aids

VOR radial/distance  VOR name  Freq  Var
TFDr261/16.6STANFIELD VORTAC114.8012E
GBNr084/22.2GILA BEND VORTAC116.6014E
PXRr191/34.6PHOENIX VORTAC115.6012E
IWAr218/38.1WILLIE VORTAC113.3013E

Airport Services

Runway Information

Runway 17/35

Dimensions: 2640 x 80 ft. / 805 x 24 m
Surface: dirt
RUNWAY 17  RUNWAY 35
Traffic pattern: leftleft

Airport Ownership and Management from official FAA records

Ownership: Privately-owned
Owner: MICHAEL A. PARKER
RT 1 BOX 3364
SHOWLOW, AZ 85901
Phone 602-537-7904
Manager: GRACE L. PARKER
P O BOX 42
STANFIELD, AZ 85272

Airport Operational Statistics

Aircraft based on the field: 1
Single engine airplanes: 1
    

Additional Remarks

FOR CD CTC LUKE APCH AT 623-856-7361. IF UNA, CTC PHOENIX APCH AT 602-306-2565.

Instrument Procedures

There are no published instrument procedures at AZ61.

Some nearby airports with instrument procedures:

KCGZ - Casa Grande Municipal Airport (24 nm E)
P19 - Stellar Airpark (29 nm NE)
KCHD - Chandler Municipal Airport (31 nm NE)
KGYR - Phoenix Goodyear Airport (32 nm N)
KPHX - Phoenix Sky Harbor International Airport (34 nm N)
 
Loc | Ops | Rwys | IFR | FBO | Links
Com | Nav | Svcs | Stats | Notes
Area around AZ61 (G M Ranch Airport)
 
Road maps at: MapQuest Bing Google
 
Aerial photo
No photo
 
Sectional chart

 
Airport distance calculator
Flying to G M Ranch Airport? Find the distance to fly.

From to AZ61

Sunrise and sunset
Times for 18-Aug-2022
 Local
(UTC-7)
 Zulu
(UTC)
Morning civil twilight05:2912:29
Sunrise05:5512:55
Sunset19:1002:10
Evening civil twilight19:3602:36

Current date and time
Zulu (UTC)  18-Aug-2022 07:09:02
Local (UTC-7)  18-Aug-2022 00:09:02
 
METAR
KA39 
17nm E 
180655Z AUTO 16011KT 10SM SCT032 BKN100 BKN120 25/23 A2997 RMK AO2
KCGZ 
24nm E 
180656Z AUTO 10SM -RA FEW050 BKN090 BKN110 25/22 A2995 RMK AO2 LTG DSNT S TSB04E19B20E41 SLP124 P0002 T02500222 404000250 $
KGXF 
24nm W 
180658Z 16011KT 10SM BKN170 30/20 A2986 RMK AO2A PK WND 15027/02 SLP097 T02990201 404020286 $
KCHD 
30nm NE 
180347Z AUTO 14005KT 6SM FEW080 BKN100 34/19 A2984 BLDU RMK LAST
KGYR 
32nm N 
180347Z 23010KT 10SM FEW090 SCT120 SCT200 BKN250 34/19 A2983 RMK LAST
KPHX 
33nm N 
180651Z 15015G23KT 10SM BKN090 BKN160 29/21 A2990 RMK AO2 SLP102 OCNL LTGIC DSNT E CB DSNT E T02940206 404110294
TAF
KPHX 
33nm N 
180557Z 1806/1912 16015G25KT 5SM BLDU VCSH BKN100 BKN250 FM180700 15010KT P6SM VCSH SCT100 BKN250 FM181200 10005KT P6SM SCT100 SCT200 FM182000 26010KT P6SM SCT120 BKN250 FM190200 02020G30KT P6SM VCTS SCT080CB BKN100 BKN150 FM190500 12008KT P6SM VCSH FEW080 SCT100 BKN250
KLUF 
37nm N 
180400Z 1804/1910 22006KT 9999 SCT100 BKN200 QNH2982INS BECMG 1821/1822 23009KT 9999 SCT100 BKN150 QNH2975INS BECMG 1901/1902 23009KT 9999 VCTS SCT080CB BKN150 QNH2977INS TEMPO 1902/1904 02020G30KT 4800 BLDU -TSRA BKN060CB BKN150 BECMG 1905/1906 VRB06KT 9999 VCSH SCT100 BKN200 QNH2978NS TX38/1823Z TN28/1813Z
KIWA 
38nm NE 
180524Z 1806/1906 16010KT P6SM VCTS FEW080CB BKN100 BKN200 FM180800 14005KT P6SM VCSH BKN100 BKN200 FM181200 10005KT P6SM SCT100 SCT250 FM182000 28008KT P6SM SCT120 BKN250 FM190100 02020G30KT P6SM VCTS SCT080CB BKN100 BKN150 FM190400 10005KT P6SM VCSH FEW080 SCT100 BKN250 AMD LTD TO CLD VIS AND WIND TIL 181200
NOTAMs
Click for the latest NOTAMs
NOTAMs are issued by the DoD/FAA and will open in a separate window not controlled by AirNav.

 

 
 

Would you like to see your business listed on this page?

 If your business provides an interesting product or service to pilots, flight crews, aircraft, or users of the G M Ranch Airport, you should consider listing it here.  To start the listing process, click on the button below
 
Add a business
 

Other Pages about G M Ranch Airport

Update a link
 
Copyright © AirNav, LLC. All rights reserved. Privacy Policy  Contact